• Join FlightAware (Why Join?)
  • Login
  • US Flag 
04:52PM EDT


 

Airport Tracker/Info


-or-


 

Live Flight TrackerFlight Track Log ✈ CTL17 ✈ 07-May-2013 ✈ KYIP - KBKL

Flight Track Log - Related Links

Times and Time Zones

All times are in EDT time to prevent confusion due to time zone crossing. See the CTL17 flight status page for this flight to view local times or setup timezone preferences in your user account.

Time Position Orientation Groundspeed Altitude Reporting Facility
EDT Latitude Longitude Course Direction KTS MPH feet Rate Location/Type
05:37PM 42.2669 -83.5772 309° West 120 138 2,600  Level Cleveland Center
05:38PM 42.2869 -83.6144 306° West 129 148 3,500 780 Climbing Cleveland Center
05:39PM 42.2817 -83.5722 100° East 124 143 4,300 780 Climbing Cleveland Center
05:40PM 42.2617 -83.5347 126° Southeast 122 140 5,100 360 Climbing Cleveland Center
05:41PM 42.2422 -83.4889 120° Southeast 163 188 5,100  Level Cleveland Center
05:42PM 42.2164 -83.4344 123° Southeast 168 193 5,100  Level Cleveland Center
05:43PM 42.1925 -83.3831 122° Southeast 163 188 5,100  Level Cleveland Center
05:44PM 42.1708 -83.3344 121° Southeast 162 186 5,100  Level Cleveland Center
05:45PM 42.1450 -83.2772 121° Southeast 166 191 5,100 -60 Level Cleveland Center
05:46PM 42.1214 -83.2231 120° Southeast 161 185 5,000  Descending Cleveland Center
05:47PM 42.0997 -83.1719 120° Southeast 160 184 5,100  Climbing Cleveland Center
05:48PM 42.0736 -83.1203 124° Southeast 161 185 5,100  Level Cleveland Center
05:49PM 42.0497 -83.0692 122° Southeast 163 188 5,100  Level Cleveland Center
05:50PM 42.0278 -83.0208 121° Southeast 159 183 5,100  Level Cleveland Center
05:51PM 42.0058 -82.9725 121° Southeast 159 183 5,100  Level Cleveland Center
05:52PM 41.9781 -82.9156 123° Southeast 160 184 5,100  Level Cleveland Center
05:53PM 41.9581 -82.8728 122° Southeast 161 185 5,100  Level Cleveland Center
05:54PM 41.9300 -82.8106 121° Southeast 160 184 5,100  Level Cleveland Center
05:55PM 41.9139 -82.7819 127° Southeast 161 185 5,100  Level Cleveland Center
05:56PM 41.8917 -82.7394 125° Southeast 160 184 5,100  Level Cleveland Center
05:57PM 41.8697 -82.6856 119° Southeast 159 183 5,100  Level Cleveland Center
05:58PM 41.8436 -82.6317 123° Southeast 157 181 5,200  Climbing Cleveland Center
05:59PM 41.8178 -82.5669 118° Southeast 159 183 5,100 -60 Descending Cleveland Center
06:00PM 41.8039 -82.5247 114° Southeast 159 183 5,100 -60 Level Cleveland Center
06:01PM 41.7839 -82.4711 117° Southeast 160 184 5,000 -420 Descending Cleveland Center
06:02PM 41.7578 -82.4036 117° Southeast 174 200 4,300 -540 Descending Cleveland Center
06:03PM 41.7339 -82.3444 118° Southeast 181 208 3,900 -540 Descending Cleveland Center
06:04PM 41.7139 -82.2856 114° Southeast 177 204 3,300 -420 Descending Cleveland Center
06:05PM 41.6875 -82.2264 121° Southeast 174 200 3,100 -120 Descending Cleveland Center
06:06PM 41.6886 -82.1625 89° East 153 176 3,100  Level Cleveland Center
06:07PM 41.6975 -82.1042 78° East 157 181 3,100  Level Cleveland Center
06:08PM 41.7003 -82.0517 86° East 159 183 3,100 -60 Level Cleveland Center
06:09PM 41.6908 -81.9931 102° East 162 186 3,000  Descending Cleveland Center
06:10PM 41.6514 -81.9669 154° Southeast 167 192 3,100 -240 Climbing Cleveland Center
06:11PM 41.6061 -81.9328 151° Southeast 174 200 2,600 -480 Descending Cleveland Center
06:12PM 41.6086 -81.8717 87° East 160 184 2,100 -360 Descending Cleveland Center
06:13PM 41.6053 -81.8217 95° East 150 173 2,000 -180 Descending Cleveland Center
06:14PM 41.5700 -81.7989 154° Southeast 163 188 1,800 -240 Descending Cleveland Center
06:15PM 41.5328 -81.7619 143° Southeast 153 176 1,600 -300 Descending Cleveland Center
06:16PM 41.5039 -81.7228 135° Southeast 135 155 1,200 -420 Descending Cleveland Center
06:18PM 41.5175 -81.6833 108° East  Level Estimated
06:25PM 41.5175 -81.6833 108° East  Level Estimated